Time;durP1;ratioP1;P1;durP2;ratioP2;P2;SDS_P1;SDS_P2;PMS_P1;PMS_P2;Temp;Humidity;BMP_temperature;BMP_pressure;BME280_temperature;BME280_humidity;BME280_pressure;Samples;Min_cycle;Max_cycle;Signal;HPM_P1;HPM_P2
2022/06/09 00:00:33;;;;;;;9.05;6.13;;;16.50;99.90;;;;;;5085197;28;20041;-79
2022/06/09 00:03:12;;;;;;;7.63;5.78;;;16.50;99.90;;;;;;5071951;28;20129;-78
2022/06/09 00:05:40;;;;;;;8.95;5.78;;;16.40;99.90;;;;;;5070819;28;20083;-77
2022/06/09 00:08:10;;;;;;;6.88;6.20;;;16.50;99.90;;;;;;5075494;28;20079;-78
2022/06/09 00:10:41;;;;;;;10.98;7.13;;;16.50;99.90;;;;;;5075902;28;20105;-77
2022/06/09 00:13:09;;;;;;;12.27;7.03;;;16.40;99.90;;;;;;5088705;28;20079;-77
2022/06/09 00:15:36;;;;;;;9.50;6.78;;;16.40;99.90;;;;;;5081903;28;20084;-77
2022/06/09 00:18:04;;;;;;;7.57;6.88;;;16.40;99.90;;;;;;5073637;28;20048;-77
2022/06/09 00:20:31;;;;;;;6.90;6.30;;;16.40;99.90;;;;;;5081832;28;20101;-76
2022/06/09 00:22:58;;;;;;;8.50;6.80;;;16.30;99.90;;;;;;5080215;28;20765;-76
2022/06/09 00:25:27;;;;;;;10.82;6.85;;;16.30;99.90;;;;;;5069389;28;20048;-77
2022/06/09 00:27:54;;;;;;;8.00;6.07;;;16.30;99.90;;;;;;5075595;28;20063;-77
2022/06/09 00:30:22;;;;;;;8.80;6.07;;;16.30;99.90;;;;;;5071586;28;20052;-77
2022/06/09 00:32:49;;;;;;;7.63;5.47;;;16.30;99.90;;;;;;5069395;28;20049;-76
2022/06/09 00:35:16;;;;;;;9.48;6.05;;;16.30;99.90;;;;;;5083844;28;20404;-77
2022/06/09 00:37:43;;;;;;;7.95;5.82;;;16.40;99.90;;;;;;5082340;28;20070;-76
2022/06/09 00:40:13;;;;;;;8.27;5.55;;;16.30;99.90;;;;;;5074331;28;20056;-76
2022/06/09 00:42:42;;;;;;;9.23;5.18;;;16.30;99.90;;;;;;5089799;28;20050;-76
2022/06/09 00:45:31;;;;;;;5.72;5.22;;;16.30;99.90;;;;;;5077986;28;20043;-76
2022/06/09 00:48:22;;;;;;;6.20;5.53;;;16.30;99.90;;;;;;5053020;28;20055;-76
2022/06/09 00:50:54;;;;;;;7.18;5.50;;;16.30;99.90;;;;;;5069548;28;20071;-77
2022/06/09 00:53:25;;;;;;;9.90;5.97;;;16.30;99.90;;;;;;5089332;28;20175;-76
2022/06/09 00:55:53;;;;;;;8.32;5.50;;;16.30;99.90;;;;;;5060762;28;20143;-76
2022/06/09 00:58:24;;;;;;;7.57;5.07;;;16.30;99.90;;;;;;5088255;28;20051;-76
2022/06/09 01:00:56;;;;;;;7.63;5.10;;;16.30;99.90;;;;;;5078553;28;20055;-78
2022/06/09 01:03:26;;;;;;;9.50;5.95;;;16.30;99.90;;;;;;5071841;28;20586;-78
2022/06/09 01:05:58;;;;;;;9.05;6.00;;;16.30;99.90;;;;;;5088750;28;20044;-78
2022/06/09 01:08:25;;;;;;;9.63;5.55;;;16.30;99.90;;;;;;5087378;28;20040;-77
2022/06/09 01:10:52;;;;;;;10.55;6.35;;;16.30;99.90;;;;;;5059434;28;20082;-78
2022/06/09 01:13:23;;;;;;;12.02;6.38;;;16.30;99.90;;;;;;5085655;28;20048;-79
2022/06/09 01:15:56;;;;;;;11.27;5.90;;;16.30;99.90;;;;;;5077696;28;20185;-78
2022/06/09 01:18:35;;;;;;;6.72;6.13;;;16.20;99.90;;;;;;5083925;28;20087;-76
2022/06/09 01:21:12;;;;;;;9.98;6.97;;;16.20;99.90;;;;;;5073845;28;20047;-76
2022/06/09 01:24:15;;;;;;;11.70;7.25;;;16.10;99.90;;;;;;5069971;28;20070;-77
2022/06/09 01:27:12;;;;;;;8.73;7.45;;;16.10;99.90;;;;;;5073083;28;20060;-78
2022/06/09 01:29:47;;;;;;;16.65;8.68;;;16.10;99.90;;;;;;5086616;28;20040;-77
2022/06/09 01:32:21;;;;;;;11.80;8.70;;;16.00;99.90;;;;;;5089039;28;20070;-77
2022/06/09 01:35:07;;;;;;;12.02;8.55;;;16.00;99.90;;;;;;5085129;28;20128;-77
2022/06/09 01:37:38;;;;;;;12.32;8.75;;;16.00;99.90;;;;;;5070933;28;20135;-78
2022/06/09 01:40:08;;;;;;;14.75;8.43;;;16.00;99.90;;;;;;5088011;28;20103;-78
2022/06/09 01:42:38;;;;;;;12.25;9.32;;;16.00;99.90;;;;;;5074376;28;20052;-78
2022/06/09 01:45:12;;;;;;;12.93;9.02;;;16.00;99.90;;;;;;5061249;28;20044;-77
2022/06/09 01:47:48;;;;;;;10.65;8.02;;;16.00;99.90;;;;;;5073638;28;20570;-77
2022/06/09 01:50:22;;;;;;;12.63;9.18;;;16.00;99.90;;;;;;5084170;28;20060;-77
2022/06/09 01:52:50;;;;;;;13.43;9.30;;;16.00;99.90;;;;;;5070435;28;20052;-77
2022/06/09 01:55:20;;;;;;;13.07;9.70;;;16.00;99.90;;;;;;5073299;28;20072;-77
2022/06/09 01:57:52;;;;;;;10.27;9.25;;;16.00;99.90;;;;;;5085880;28;20071;-77
2022/06/09 02:00:20;;;;;;;14.65;9.60;;;16.00;99.90;;;;;;5075627;28;20048;-77
2022/06/09 02:02:53;;;;;;;10.85;9.02;;;16.00;99.90;;;;;;5064643;28;20519;-76
2022/06/09 02:05:23;;;;;;;11.95;9.68;;;16.00;99.90;;;;;;5088936;28;20504;-77
2022/06/09 02:07:53;;;;;;;11.27;9.82;;;16.00;99.90;;;;;;5070590;28;20052;-78
2022/06/09 02:10:23;;;;;;;12.00;9.98;;;16.10;99.90;;;;;;5075406;28;20135;-78
2022/06/09 02:12:51;;;;;;;13.98;10.20;;;16.00;99.90;;;;;;5082111;28;20058;-76
2022/06/09 02:15:24;;;;;;;11.05;9.50;;;16.10;99.90;;;;;;5082147;28;20094;-77
2022/06/09 02:17:53;;;;;;;11.05;9.90;;;16.10;99.90;;;;;;5088740;28;20131;-77
2022/06/09 02:20:23;;;;;;;11.95;9.73;;;16.10;99.90;;;;;;5089592;28;20090;-79
2022/06/09 02:22:50;;;;;;;12.45;9.55;;;16.10;99.90;;;;;;5070307;28;20106;-79
2022/06/09 02:25:18;;;;;;;10.93;8.88;;;16.10;99.90;;;;;;5081319;28;20048;-79
2022/06/09 02:27:46;;;;;;;11.00;9.48;;;16.10;99.90;;;;;;5085909;28;20117;-79
2022/06/09 02:30:15;;;;;;;11.80;9.02;;;16.20;99.90;;;;;;5084917;28;20411;-79
2022/06/09 02:32:42;;;;;;;11.07;9.95;;;16.20;99.90;;;;;;5059830;28;20072;-79
2022/06/09 02:35:10;;;;;;;12.38;10.10;;;16.20;99.90;;;;;;5070248;28;20140;-79
2022/06/09 02:37:38;;;;;;;13.77;10.07;;;16.30;99.90;;;;;;5078189;28;20527;-78
2022/06/09 02:40:06;;;;;;;12.20;9.65;;;16.30;99.90;;;;;;5080300;28;20040;-78
2022/06/09 02:42:33;;;;;;;21.05;10.38;;;16.30;99.90;;;;;;5072774;28;20046;-78
2022/06/09 02:45:03;;;;;;;21.00;11.52;;;16.30;99.90;;;;;;5075264;28;20063;-78
2022/06/09 02:47:31;;;;;;;21.58;10.52;;;16.40;99.90;;;;;;5089110;28;20052;-79
2022/06/09 02:49:58;;;;;;;26.85;11.70;;;16.40;99.90;;;;;;5086031;28;20060;-79
2022/06/09 02:52:26;;;;;;;33.42;13.07;;;16.40;99.90;;;;;;5082005;28;20059;-77
2022/06/09 02:54:54;;;;;;;29.55;12.10;;;16.40;99.90;;;;;;5087923;28;20127;-77
2022/06/09 02:57:23;;;;;;;25.50;11.38;;;16.40;99.90;;;;;;5075365;28;20147;-77
2022/06/09 02:59:51;;;;;;;33.00;14.38;;;16.40;99.90;;;;;;5086497;28;20040;-77
2022/06/09 03:02:18;;;;;;;27.00;12.57;;;16.50;99.90;;;;;;5076976;28;20044;-77
2022/06/09 03:04:46;;;;;;;23.48;13.27;;;16.50;99.90;;;;;;5079082;28;20097;-77
2022/06/09 03:07:13;;;;;;;16.55;12.45;;;16.50;99.90;;;;;;5088853;28;20048;-76
2022/06/09 03:09:42;;;;;;;17.67;12.40;;;16.50;99.90;;;;;;5086502;28;20055;-77
2022/06/09 03:12:10;;;;;;;14.45;12.98;;;16.50;99.90;;;;;;5085160;28;20047;-77
2022/06/09 03:14:38;;;;;;;19.60;14.77;;;16.60;99.90;;;;;;5089388;28;20040;-77
2022/06/09 03:17:06;;;;;;;21.17;14.90;;;16.50;99.90;;;;;;5063638;28;20048;-77
2022/06/09 03:19:33;;;;;;;18.77;13.82;;;16.50;99.90;;;;;;5071233;28;20057;-78
2022/06/09 03:22:00;;;;;;;18.67;15.65;;;16.50;99.90;;;;;;5079070;28;20051;-78
2022/06/09 03:24:28;;;;;;;20.95;17.10;;;16.50;99.90;;;;;;5078531;28;20451;-78
2022/06/09 03:26:57;;;;;;;15.90;14.27;;;16.50;99.90;;;;;;5073136;28;20095;-77
2022/06/09 03:29:24;;;;;;;19.63;16.20;;;16.60;99.90;;;;;;5074421;28;20058;-77
2022/06/09 03:31:52;;;;;;;17.10;15.32;;;16.60;99.90;;;;;;5088427;28;20052;-77
2022/06/09 03:34:19;;;;;;;16.50;14.68;;;16.60;99.90;;;;;;5071195;28;20079;-77
2022/06/09 03:36:47;;;;;;;18.10;16.20;;;16.60;99.90;;;;;;5087810;28;20153;-77
2022/06/09 03:39:14;;;;;;;17.33;15.48;;;16.60;99.90;;;;;;5063545;28;20049;-78
2022/06/09 03:41:42;;;;;;;18.77;16.45;;;16.60;99.90;;;;;;5079953;28;20047;-78
2022/06/09 03:44:10;;;;;;;21.45;18.13;;;16.70;99.90;;;;;;5087159;28;20048;-78
2022/06/09 03:46:38;;;;;;;24.88;19.63;;;16.70;99.90;;;;;;5075251;28;20052;-78
2022/06/09 03:49:05;;;;;;;24.50;19.38;;;16.70;99.90;;;;;;5092350;28;20048;-78
2022/06/09 03:51:33;;;;;;;24.30;20.65;;;16.80;99.90;;;;;;5080734;28;20143;-77
2022/06/09 03:54:00;;;;;;;22.30;19.52;;;16.80;99.90;;;;;;5085331;28;20505;-77
2022/06/09 03:56:28;;;;;;;21.33;18.33;;;16.90;99.90;;;;;;5087261;28;20105;-77
2022/06/09 03:58:56;;;;;;;17.92;15.98;;;17.00;99.90;;;;;;5089054;28;20146;-77
2022/06/09 04:01:24;;;;;;;17.17;15.38;;;17.00;99.90;;;;;;5074466;28;20041;-78
2022/06/09 04:03:51;;;;;;;15.75;14.15;;;17.10;99.90;;;;;;5068022;28;20054;-78
2022/06/09 04:06:21;;;;;;;15.10;13.48;;;17.20;99.90;;;;;;5091079;28;20076;-76
2022/06/09 04:08:50;;;;;;;13.15;11.52;;;17.20;99.90;;;;;;5076463;28;20044;-79
2022/06/09 04:11:19;;;;;;;11.60;10.55;;;17.20;99.90;;;;;;5085568;28;20048;-78
2022/06/09 04:13:46;;;;;;;11.10;10.07;;;17.10;99.90;;;;;;5089489;28;20052;-78
2022/06/09 04:16:21;;;;;;;11.20;10.20;;;17.10;99.90;;;;;;5091000;28;20048;-79
2022/06/09 04:18:50;;;;;;;11.65;10.35;;;17.10;99.90;;;;;;5081140;28;20532;-78
2022/06/09 04:21:17;;;;;;;9.35;8.48;;;17.20;99.90;;;;;;5091343;28;20071;-78
2022/06/09 04:23:44;;;;;;;8.52;7.75;;;17.20;99.90;;;;;;5090555;28;20044;-78
2022/06/09 04:26:15;;;;;;;7.32;6.78;;;17.10;99.90;;;;;;5092569;28;20054;-78
2022/06/09 04:28:42;;;;;;;6.50;6.00;;;17.30;99.90;;;;;;5088185;28;20048;-78
2022/06/09 04:31:10;;;;;;;5.47;4.97;;;17.40;99.90;;;;;;5077491;28;20052;-78
2022/06/09 04:33:37;;;;;;;6.40;5.57;;;17.40;99.90;;;;;;5081306;28;20083;-78
2022/06/09 04:36:07;;;;;;;5.22;4.85;;;17.50;99.90;;;;;;5090392;28;20044;-78
2022/06/09 04:38:36;;;;;;;6.60;4.43;;;17.70;99.90;;;;;;5081088;28;20052;-78
2022/06/09 04:41:04;;;;;;;5.07;4.30;;;17.90;99.90;;;;;;5090568;28;20048;-78
2022/06/09 04:43:31;;;;;;;28.63;9.85;;;18.00;99.90;;;;;;5089882;28;20147;-78
2022/06/09 04:45:58;;;;;;;4.70;4.25;;;18.10;99.90;;;;;;5086198;28;20071;-78
2022/06/09 04:48:25;;;;;;;11.05;9.15;;;18.10;99.90;;;;;;5078600;28;20048;-78
2022/06/09 04:50:52;;;;;;;8.32;4.60;;;18.00;99.90;;;;;;5068712;28;20503;-78
2022/06/09 04:53:21;;;;;;;24.95;9.88;;;18.00;99.90;;;;;;5071850;28;20166;-78
2022/06/09 04:55:48;;;;;;;4.47;3.05;;;17.90;99.90;;;;;;5077476;28;20068;-77
2022/06/09 04:58:15;;;;;;;18.63;7.38;;;17.90;99.90;;;;;;5062812;28;20481;-79
2022/06/09 05:00:42;;;;;;;7.32;4.30;;;18.10;99.90;;;;;;5074616;28;20523;-79
2022/06/09 05:03:12;;;;;;;4.80;3.65;;;18.10;99.90;;;;;;5088253;28;20039;-78
2022/06/09 05:05:42;;;;;;;5.78;3.90;;;18.30;99.90;;;;;;5082235;28;20040;-78
2022/06/09 05:08:10;;;;;;;3.88;3.22;;;18.40;99.90;;;;;;5074868;28;20044;-78
2022/06/09 05:10:39;;;;;;;3.50;3.20;;;18.50;99.90;;;;;;5069491;28;20048;-78
2022/06/09 05:13:06;;;;;;;10.30;5.53;;;18.60;99.90;;;;;;5085886;28;20497;-78
2022/06/09 05:15:36;;;;;;;9.23;5.88;;;18.70;99.90;;;;;;5086085;28;20093;-77
2022/06/09 05:18:04;;;;;;;4.40;4.10;;;18.60;99.90;;;;;;5075186;28;20097;-78
2022/06/09 05:20:32;;;;;;;5.70;5.30;;;18.60;99.90;;;;;;5070193;28;20044;-77
2022/06/09 05:22:59;;;;;;;5.13;4.72;;;18.40;99.90;;;;;;5078890;28;20555;-77
2022/06/09 05:25:29;;;;;;;6.07;5.63;;;18.30;99.90;;;;;;5065229;28;20140;-77
2022/06/09 05:28:02;;;;;;;6.00;5.47;;;18.20;99.90;;;;;;5079111;28;20044;-75
2022/06/09 05:30:30;;;;;;;6.82;6.13;;;18.20;99.90;;;;;;5079222;28;20050;-75
2022/06/09 05:32:58;;;;;;;6.55;5.93;;;18.00;99.90;;;;;;5074576;28;20048;-75
2022/06/09 05:35:25;;;;;;;7.35;6.03;;;17.90;99.90;;;;;;5076199;28;20047;-76
2022/06/09 05:46:14;;;;;;;8.57;7.38;;;17.90;99.90;;;;;;5078823;28;20121;-76
2022/06/09 05:48:43;;;;;;;13.20;9.23;;;17.80;99.90;;;;;;5087242;28;20048;-76
2022/06/09 05:51:10;;;;;;;9.07;8.27;;;17.80;99.90;;;;;;5085315;28;20044;-77
2022/06/09 05:53:41;;;;;;;9.43;8.52;;;17.80;99.90;;;;;;5069663;28;20044;-76
2022/06/09 05:56:10;;;;;;;8.88;8.10;;;17.90;99.90;;;;;;5071055;28;20508;-76
2022/06/09 05:58:40;;;;;;;8.73;8.02;;;18.00;99.90;;;;;;5085375;28;20048;-77
2022/06/09 06:01:11;;;;;;;9.25;8.23;;;18.20;99.90;;;;;;5076518;28;20075;-77
2022/06/09 06:03:41;;;;;;;7.85;7.15;;;18.40;99.90;;;;;;5083081;28;20502;-77
2022/06/09 06:08:53;;;;;;;7.97;6.75;;;19.00;99.90;;;;;;5085904;28;20071;-77
2022/06/09 06:11:20;;;;;;;7.57;7.00;;;19.50;99.90;;;;;;5079721;28;20497;-77
2022/06/09 06:13:49;;;;;;;7.20;6.70;;;19.70;99.90;;;;;;5075125;28;20512;-77
2022/06/09 06:16:16;;;;;;;7.82;7.22;;;19.90;99.90;;;;;;5070174;28;20041;-78
2022/06/09 06:18:43;;;;;;;6.53;6.03;;;20.00;99.90;;;;;;5074231;28;20428;-77
2022/06/09 06:21:10;;;;;;;6.78;6.20;;;20.10;99.90;;;;;;5075365;28;20052;-77
2022/06/09 06:23:40;;;;;;;6.93;6.32;;;20.20;99.90;;;;;;5073961;28;20044;-77
2022/06/09 06:26:07;;;;;;;8.63;6.40;;;20.20;99.90;;;;;;5073940;28;20055;-78
2022/06/09 06:28:34;;;;;;;7.35;6.70;;;20.10;99.90;;;;;;5077440;28;20040;-77
2022/06/09 06:31:03;;;;;;;7.38;6.78;;;20.00;99.90;;;;;;5074816;28;20109;-77
2022/06/09 06:33:31;;;;;;;7.22;6.63;;;19.80;99.90;;;;;;5078611;28;20052;-77
2022/06/09 06:35:58;;;;;;;6.97;6.30;;;19.80;99.90;;;;;;5080326;28;20041;-79
2022/06/09 06:38:25;;;;;;;7.35;6.65;;;19.90;99.90;;;;;;5083771;28;20089;-77
2022/06/09 06:40:54;;;;;;;7.15;5.82;;;19.90;99.90;;;;;;5077126;28;20126;-78
2022/06/09 06:43:22;;;;;;;5.88;5.47;;;20.00;99.90;;;;;;5075872;28;20169;-77
2022/06/09 06:45:52;;;;;;;6.15;5.57;;;20.00;99.90;;;;;;5074380;28;20056;-78
2022/06/09 06:48:21;;;;;;;6.57;5.43;;;20.00;99.90;;;;;;5077809;28;20044;-77
2022/06/09 06:50:48;;;;;;;7.50;6.00;;;20.10;99.90;;;;;;5088224;28;20076;-78
2022/06/09 06:53:15;;;;;;;6.53;5.90;;;20.40;99.90;;;;;;5084301;28;20064;-77
2022/06/09 06:55:42;;;;;;;6.35;5.78;;;20.60;99.90;;;;;;5077696;28;20518;-78
2022/06/09 06:58:12;;;;;;;6.10;5.55;;;20.60;99.90;;;;;;5080973;28;20044;-78
2022/06/09 07:00:42;;;;;;;10.45;6.63;;;20.60;99.90;;;;;;5077500;28;20561;-77
2022/06/09 07:03:11;;;;;;;6.88;6.10;;;20.70;99.90;;;;;;5081551;28;20105;-76
2022/06/09 07:05:40;;;;;;;7.10;6.20;;;20.80;99.90;;;;;;5081245;28;20044;-76
2022/06/09 07:08:07;;;;;;;7.93;6.18;;;20.90;99.90;;;;;;5063547;28;20482;-75
2022/06/09 07:10:35;;;;;;;5.57;5.18;;;20.90;99.90;;;;;;5079260;28;20036;-76
2022/06/09 07:13:03;;;;;;;5.55;5.05;;;21.00;99.90;;;;;;5080943;28;20132;-75
2022/06/09 07:15:30;;;;;;;7.47;5.00;;;21.10;99.90;;;;;;5082873;28;20097;-76
2022/06/09 07:17:58;;;;;;;5.50;5.00;;;21.20;99.90;;;;;;5084993;28;20056;-75
2022/06/09 07:20:26;;;;;;;5.30;4.80;;;21.30;99.90;;;;;;5083681;28;20040;-75
2022/06/09 07:22:55;;;;;;;4.95;4.55;;;21.70;99.90;;;;;;5077348;28;20040;-76
2022/06/09 07:25:26;;;;;;;4.85;4.38;;;22.10;99.90;;;;;;5079400;28;20044;-78
2022/06/09 07:27:55;;;;;;;6.50;4.75;;;22.70;99.90;;;;;;5078787;28;20049;-76
2022/06/09 07:30:24;;;;;;;5.32;4.85;;;23.30;99.90;;;;;;5083936;28;20071;-78
2022/06/09 07:32:52;;;;;;;6.03;5.40;;;23.50;99.90;;;;;;5080512;28;20552;-78
2022/06/09 07:35:23;;;;;;;8.77;5.43;;;23.60;99.90;;;;;;5081118;28;20062;-79
2022/06/09 07:37:51;;;;;;;7.78;5.63;;;23.90;99.90;;;;;;5079836;28;20139;-77
2022/06/09 07:40:20;;;;;;;6.28;5.78;;;24.10;99.90;;;;;;5082404;28;20048;-77
2022/06/09 07:42:49;;;;;;;6.22;5.55;;;24.00;99.90;;;;;;5079067;28;20040;-77
2022/06/09 07:45:17;;;;;;;5.95;5.40;;;24.70;99.90;;;;;;5070787;28;20349;-77
2022/06/09 07:47:45;;;;;;;7.57;6.15;;;24.90;99.90;;;;;;5078232;28;20052;-77
2022/06/09 07:50:16;;;;;;;6.80;6.25;;;24.90;99.90;;;;;;5061610;28;20328;-77
2022/06/09 07:52:44;;;;;;;6.40;5.90;;;25.50;99.90;;;;;;5076401;28;20053;-77
2022/06/09 07:55:15;;;;;;;7.05;6.22;;;26.20;99.90;;;;;;5075864;28;20051;-77
2022/06/09 07:57:44;;;;;;;7.38;6.88;;;26.30;99.90;;;;;;5075731;28;20054;-77
2022/06/09 08:00:14;;;;;;;7.07;6.57;;;26.40;99.90;;;;;;5080337;28;20052;-78
2022/06/09 08:02:43;;;;;;;10.55;4.75;;;26.40;99.90;;;;;;5077677;28;20048;-78
2022/06/09 08:05:12;;;;;;;5.30;4.15;;;27.00;99.90;;;;;;5086394;28;20048;-77
2022/06/09 08:07:39;;;;;;;6.43;4.47;;;28.00;97.70;;;;;;5084238;28;20052;-75
2022/06/09 08:10:08;;;;;;;3.90;3.60;;;28.90;91.50;;;;;;5078004;28;20519;-76
2022/06/09 08:12:35;;;;;;;4.97;3.60;;;29.50;85.00;;;;;;5055452;28;20148;-76
2022/06/09 08:15:05;;;;;;;5.85;4.13;;;29.70;80.90;;;;;;5071544;28;20049;-75
2022/06/09 08:17:33;;;;;;;4.07;3.67;;;30.10;79.90;;;;;;5070235;28;20125;-76
2022/06/09 08:20:00;;;;;;;3.38;3.17;;;30.40;75.10;;;;;;5089001;28;20071;-74
2022/06/09 08:22:27;;;;;;;2.95;2.70;;;30.00;74.50;;;;;;5080111;28;20482;-76
2022/06/09 08:24:55;;;;;;;6.97;3.13;;;29.80;71.40;;;;;;5077507;28;20044;-76
2022/06/09 08:27:23;;;;;;;3.90;2.70;;;30.00;69.10;;;;;;5078193;28;20102;-77
2022/06/09 08:29:51;;;;;;;5.10;4.72;;;30.00;68.70;;;;;;5061858;28;20170;-76
2022/06/09 08:32:19;;;;;;;3.97;3.67;;;30.30;67.30;;;;;;5081155;28;20070;-76
2022/06/09 08:34:47;;;;;;;5.57;2.75;;;30.80;66.30;;;;;;5083565;28;20051;-76
2022/06/09 08:37:14;;;;;;;4.57;4.20;;;31.10;64.70;;;;;;5078719;28;20523;-77
2022/06/09 08:39:41;;;;;;;6.43;3.70;;;31.20;64.60;;;;;;5078486;28;20075;-79
2022/06/09 08:42:23;;;;;;;3.45;3.25;;;31.40;63.70;;;;;;5081767;28;20072;-78
2022/06/09 08:44:58;;;;;;;3.88;3.63;;;31.50;62.30;;;;;;5072850;28;20109;-79
2022/06/09 08:47:35;;;;;;;5.03;3.30;;;31.70;64.50;;;;;;5090428;28;20048;-78
2022/06/09 08:50:08;;;;;;;4.68;3.78;;;32.10;64.70;;;;;;5080048;28;20140;-78
2022/06/09 08:52:44;;;;;;;3.40;3.20;;;32.10;61.40;;;;;;5083323;28;20048;-79
2022/06/09 08:55:32;;;;;;;3.67;3.15;;;31.80;61.60;;;;;;5080684;28;20441;-78
2022/06/09 08:58:04;;;;;;;6.00;4.10;;;31.80;62.00;;;;;;5078978;28;20550;-79
2022/06/09 09:00:36;;;;;;;4.88;2.92;;;31.90;62.70;;;;;;5073059;28;20053;-77
2022/06/09 09:03:13;;;;;;;4.00;3.60;;;32.00;59.90;;;;;;5070684;28;20106;-82
2022/06/09 09:05:45;;;;;;;8.43;7.60;;;32.20;59.20;;;;;;5072995;28;20500;-79
2022/06/09 09:08:14;;;;;;;5.72;3.67;;;32.70;60.00;;;;;;5058928;28;20040;-79
2022/06/09 09:10:52;;;;;;;4.03;3.65;;;33.00;57.90;;;;;;5052808;28;20049;-79
2022/06/09 09:13:36;;;;;;;4.25;3.95;;;33.20;55.40;;;;;;5078964;28;20044;-80
2022/06/09 09:16:08;;;;;;;4.88;4.47;;;33.10;55.90;;;;;;5061946;28;20580;-79
2022/06/09 09:18:45;;;;;;;4.68;3.90;;;33.00;57.20;;;;;;5071867;28;20040;-80
2022/06/09 09:21:30;;;;;;;3.83;3.53;;;33.10;55.30;;;;;;5079008;28;20060;-80
2022/06/09 09:24:10;;;;;;;5.00;3.83;;;33.10;54.30;;;;;;5074169;28;20451;-80
2022/06/09 09:26:48;;;;;;;7.28;3.78;;;33.10;55.70;;;;;;5068821;28;20527;-81
2022/06/09 09:29:23;;;;;;;4.05;3.50;;;33.20;54.80;;;;;;5069461;28;20512;-81
2022/06/09 09:31:54;;;;;;;4.15;3.90;;;33.20;54.00;;;;;;5071483;28;20085;-80
2022/06/09 09:34:24;;;;;;;;;;;33.30;55.50;;;;;;5075490;28;20044;-81
2022/06/09 09:36:58;;;;;;;3.88;3.58;;;33.50;54.80;;;;;;5069543;28;19978;-81
2022/06/09 09:39:36;;;;;;;3.10;2.90;;;33.70;53.00;;;;;;5069641;28;20050;-82
2022/06/09 09:42:12;;;;;;;8.05;7.25;;;33.90;53.10;;;;;;5083082;28;20052;-80
2022/06/09 09:44:40;;;;;;;7.28;3.40;;;33.90;52.90;;;;;;5081914;28;20123;-79
2022/06/09 09:47:08;;;;;;;5.78;3.40;;;34.10;54.10;;;;;;5072127;28;20131;-76
2022/06/09 09:49:44;;;;;;;4.10;3.70;;;34.20;54.70;;;;;;5068290;28;20044;-78
2022/06/09 09:52:37;;;;;;;4.03;3.72;;;34.30;53.10;;;;;;5074991;28;20110;-77
2022/06/09 09:55:22;;;;;;;8.52;3.25;;;34.40;52.20;;;;;;5080756;28;20067;-76
2022/06/09 09:58:07;;;;;;;5.05;2.92;;;34.60;52.00;;;;;;5087793;28;20109;-77
2022/06/09 10:00:35;;;;;;;3.83;3.28;;;34.70;50.80;;;;;;5075548;28;20052;-77
2022/06/09 10:08:46;;;;;;;5.47;2.78;;;34.80;52.20;;;;;;5069947;28;20290;-78
2022/06/09 10:14:27;;;;;;;6.18;3.08;;;35.20;51.50;;;;;;5085097;28;20063;-76
2022/06/09 10:16:56;;;;;;;6.20;3.42;;;35.30;50.80;;;;;;5086074;28;20416;-78
2022/06/09 10:19:26;;;;;;;3.40;3.20;;;35.40;50.60;;;;;;5079909;28;20109;-77
2022/06/09 10:21:57;;;;;;;3.70;3.33;;;35.50;49.80;;;;;;5082783;28;20280;-76
2022/06/09 10:24:29;;;;;;;3.97;3.77;;;35.70;50.60;;;;;;5073729;28;20051;-76
2022/06/09 10:26:58;;;;;;;2.80;2.60;;;35.80;49.90;;;;;;5087845;28;20052;-76
2022/06/09 10:29:30;;;;;;;3.33;2.13;;;35.90;49.80;;;;;;5083578;28;20036;-76
2022/06/09 10:32:03;;;;;;;5.95;3.20;;;36.00;47.80;;;;;;5075326;28;20056;-76
2022/06/09 10:34:44;;;;;;;2.50;2.40;;;35.90;48.20;;;;;;5071468;28;20049;-77
2022/06/09 10:37:19;;;;;;;3.70;3.50;;;36.00;49.60;;;;;;5084447;28;20036;-76
2022/06/09 10:39:53;;;;;;;33.47;3.63;;;36.20;49.70;;;;;;5091510;28;20124;-76
2022/06/09 10:42:30;;;;;;;3.38;2.55;;;36.20;48.40;;;;;;5077194;28;20072;-77
2022/06/09 10:45:20;;;;;;;6.13;2.42;;;36.20;48.90;;;;;;5077773;28;20052;-82
2022/06/09 10:56:39;;;;;;;3.67;2.38;;;36.10;49.60;;;;;;5079257;28;20051;-80
2022/06/09 10:59:14;;;;;;;2.45;2.25;;;36.40;48.60;;;;;;5080353;28;20055;-76
2022/06/09 11:01:42;;;;;;;3.25;2.30;;;36.60;46.80;;;;;;5080771;28;20056;-77
2022/06/09 11:04:14;;;;;;;2.78;2.22;;;36.80;46.50;;;;;;5079850;28;20400;-77
2022/06/09 11:07:11;;;;;;;3.25;2.90;;;37.00;45.50;;;;;;5076866;28;20119;-80
2022/06/09 11:09:53;;;;;;;4.05;2.80;;;37.00;45.90;;;;;;5047100;28;20040;-80
2022/06/09 11:12:30;;;;;;;3.13;2.92;;;36.00;47.50;;;;;;5081622;28;20098;-76
2022/06/09 11:15:09;;;;;;;4.50;3.10;;;36.00;48.10;;;;;;5078299;28;20139;-75
2022/06/09 11:18:00;;;;;;;7.05;2.63;;;35.90;48.20;;;;;;5077613;28;20055;-78
2022/06/09 11:20:37;;;;;;;5.07;2.33;;;36.40;46.80;;;;;;5081600;28;20072;-82
2022/06/09 11:23:15;;;;;;;3.13;2.35;;;37.00;46.20;;;;;;5083347;28;20146;-81
2022/06/09 11:25:59;;;;;;;3.10;2.80;;;37.30;45.30;;;;;;5073393;28;20064;-80
2022/06/09 11:28:47;;;;;;;2.97;2.75;;;37.50;45.60;;;;;;5072462;28;20524;-80
2022/06/09 11:31:34;;;;;;;3.03;2.80;;;37.60;44.90;;;;;;5073282;28;20044;-77
2022/06/09 11:34:16;;;;;;;6.68;4.97;;;37.50;46.10;;;;;;5087590;28;20052;-78
2022/06/09 11:36:51;;;;;;;3.80;2.83;;;37.40;45.50;;;;;;5072874;28;20052;-78
2022/06/09 11:39:32;;;;;;;7.20;4.78;;;37.30;46.50;;;;;;5071440;28;20064;-77
2022/06/09 11:42:05;;;;;;;3.03;2.83;;;36.90;46.80;;;;;;5080761;28;20093;-76
2022/06/09 11:44:36;;;;;;;3.10;2.90;;;37.30;47.60;;;;;;5086262;28;20040;-76
2022/06/09 11:47:06;;;;;;;3.80;3.40;;;37.50;46.00;;;;;;5072125;28;20048;-76
2022/06/09 11:49:37;;;;;;;5.60;2.95;;;37.50;46.10;;;;;;5076178;28;20098;-79
2022/06/09 11:52:07;;;;;;;3.83;2.90;;;37.20;45.90;;;;;;5085040;28;20058;-78
2022/06/09 11:54:42;;;;;;;3.70;3.03;;;37.30;46.10;;;;;;5085593;28;20048;-79
2022/06/09 11:57:26;;;;;;;5.15;2.97;;;37.60;46.50;;;;;;5073006;28;20569;-79
2022/06/09 11:59:57;;;;;;;3.38;2.85;;;37.80;46.00;;;;;;5077442;28;20443;-77
2022/06/09 12:02:56;;;;;;;4.63;3.33;;;38.00;46.20;;;;;;5072951;28;20044;-77
2022/06/09 12:05:29;;;;;;;3.10;2.90;;;38.10;45.80;;;;;;5072088;28;20049;-76
2022/06/09 12:08:12;;;;;;;3.78;3.08;;;38.00;45.70;;;;;;5087941;28;20076;-77
2022/06/09 12:11:05;;;;;;;4.13;3.80;;;38.10;45.00;;;;;;5075911;28;20040;-76
2022/06/09 12:13:48;;;;;;;3.65;3.40;;;38.00;45.00;;;;;;5081499;28;20044;-77
2022/06/09 12:16:26;;;;;;;4.05;3.65;;;38.10;45.50;;;;;;5078718;28;20048;-74
2022/06/09 12:19:04;;;;;;;4.10;3.80;;;38.00;44.80;;;;;;5084344;28;20409;-76
2022/06/09 12:21:35;;;;;;;4.55;4.28;;;38.30;44.30;;;;;;5078499;28;20508;-78
2022/06/09 12:24:33;;;;;;;4.53;4.00;;;38.30;44.50;;;;;;5084626;28;20067;-79
2022/06/09 12:27:36;;;;;;;5.07;4.72;;;38.50;45.60;;;;;;5086248;28;20044;-80
2022/06/09 12:30:35;;;;;;;6.47;5.72;;;38.40;44.90;;;;;;5084382;28;20124;-79
2022/06/09 12:33:33;;;;;;;8.27;4.50;;;38.30;44.90;;;;;;5090658;28;20094;-82
2022/06/09 12:36:05;;;;;;;4.80;4.50;;;38.30;45.10;;;;;;5059555;28;20049;-83
2022/06/09 12:38:42;;;;;;;4.82;4.43;;;38.30;45.60;;;;;;5070087;28;20051;-80
2022/06/09 12:41:27;;;;;;;7.25;5.00;;;38.50;45.40;;;;;;5071204;28;20122;-81
2022/06/09 12:44:08;;;;;;;5.50;4.88;;;38.50;44.60;;;;;;5069894;28;20078;-78
2022/06/09 12:46:41;;;;;;;5.50;5.10;;;38.40;44.90;;;;;;5074235;28;20101;-79
2022/06/09 12:49:16;;;;;;;7.63;5.70;;;38.30;45.10;;;;;;5070816;28;20049;-81
2022/06/09 12:51:43;;;;;;;6.13;5.63;;;38.20;45.40;;;;;;5071264;28;20551;-80
2022/06/09 12:54:21;;;;;;;6.47;5.80;;;37.70;45.90;;;;;;5072538;28;20728;-80
2022/06/09 12:56:58;;;;;;;6.40;5.80;;;37.50;46.70;;;;;;5082628;28;20048;-79
2022/06/09 12:59:27;;;;;;;6.05;5.40;;;37.60;47.20;;;;;;5083081;28;20637;-81
2022/06/09 13:02:03;;;;;;;6.63;6.03;;;37.80;46.50;;;;;;5079951;28;20719;-77
2022/06/09 13:04:33;;;;;;;9.35;8.55;;;37.90;46.20;;;;;;5085064;28;20138;-79
2022/06/09 13:07:01;;;;;;;6.43;5.57;;;38.20;46.20;;;;;;5081358;28;20094;-78
2022/06/09 13:09:32;;;;;;;5.85;5.35;;;38.10;46.30;;;;;;5077346;28;20583;-75
2022/06/09 13:14:51;;;;;;;5.40;5.10;;;38.30;45.40;;;;;;5082540;28;20125;-83
2022/06/09 13:17:26;;;;;;;5.50;5.00;;;38.30;45.50;;;;;;5072192;28;20053;-82
2022/06/09 13:19:57;;;;;;;6.15;5.57;;;38.20;45.40;;;;;;5069426;28;20094;-86
2022/06/09 13:22:29;;;;;;;7.22;6.10;;;38.00;45.00;;;;;;5053994;28;20139;-84
2022/06/09 13:24:57;;;;;;;9.85;8.82;;;37.80;44.10;;;;;;5073656;28;20052;-81
2022/06/09 13:27:31;;;;;;;5.55;5.07;;;37.80;45.10;;;;;;5085981;28;20055;-85
2022/06/09 13:30:04;;;;;;;8.43;5.05;;;37.70;44.20;;;;;;5063808;28;20147;-84
2022/06/09 13:32:40;;;;;;;7.55;5.60;;;37.70;45.00;;;;;;5083193;28;20076;-81
2022/06/09 13:35:33;;;;;;;6.50;4.85;;;37.60;44.50;;;;;;5077800;28;20097;-84
2022/06/09 13:38:04;;;;;;;5.72;5.20;;;37.50;45.30;;;;;;5071518;28;20052;-78